Time;durP1;ratioP1;P1;durP2;ratioP2;P2;SDS_P1;SDS_P2;PMS_P1;PMS_P2;Temp;Humidity;BMP_temperature;BMP_pressure;BME280_temperature;BME280_humidity;BME280_pressure;Samples;Min_cycle;Max_cycle;Signal;HPM_P1;HPM_P2
2022/09/04 00:01:02;;;;;;;0.10;0.10;;;18.30;99.90;;;;;;4906052;29;20025;-77
2022/09/04 00:03:45;;;;;;;0.15;0.15;;;18.00;99.90;;;;;;4907763;29;20089;-76
2022/09/04 00:06:18;;;;;;;0.10;0.10;;;16.20;99.90;;;;;;4908445;29;20023;-83
2022/09/04 00:09:10;;;;;;;0.10;0.10;;;18.50;99.90;;;;;;4910820;29;20452;-76
2022/09/04 00:12:01;;;;;;;0.00;0.00;;;18.50;99.90;;;;;;4907951;29;20043;-76
2022/09/04 00:14:39;;;;;;;0.45;0.45;;;18.20;99.90;;;;;;4910723;29;20036;-77
2022/09/04 00:17:22;;;;;;;0.10;0.10;;;18.20;99.90;;;;;;4911913;29;20032;-76
2022/09/04 00:20:38;;;;;;;0.10;0.10;;;18.50;99.90;;;;;;4911586;29;20029;-76
2022/09/04 00:23:34;;;;;;;0.10;0.10;;;18.70;99.90;;;;;;4820821;29;20063;-78
2022/09/04 00:26:17;;;;;;;0.10;0.10;;;18.80;99.90;;;;;;4803975;29;20062;-76
2022/09/04 00:28:55;;;;;;;0.08;0.08;;;19.40;99.90;;;;;;4817662;29;20094;-76
2022/09/04 00:31:35;;;;;;;0.38;0.38;;;19.10;99.90;;;;;;4816997;29;20030;-76
2022/09/04 00:34:30;;;;;;;0.10;0.10;;;19.20;99.90;;;;;;4816458;29;20515;-83
2022/09/04 00:37:03;;;;;;;0.10;0.10;;;18.90;99.90;;;;;;4795517;29;20046;-82
2022/09/04 00:39:58;;;;;;;0.10;0.10;;;19.30;99.90;;;;;;4791983;29;20135;-80
2022/09/04 00:42:42;;;;;;;0.10;0.10;;;19.00;99.90;;;;;;4789429;29;20582;-78
2022/09/04 00:45:26;;;;;;;0.10;0.10;;;19.30;99.90;;;;;;4778098;29;20078;-79
2022/09/04 00:48:20;;;;;;;0.15;0.15;;;19.10;99.90;;;;;;4793106;29;20035;-85
2022/09/04 00:50:58;;;;;;;;;;;19.20;99.90;;;;;;4777752;29;20046;-78
2022/09/04 00:54:05;;;;;;;0.10;0.10;;;19.10;99.90;;;;;;4792711;29;19971;-79
2022/09/04 00:56:46;;;;;;;0.20;0.20;;;18.80;99.90;;;;;;4774055;29;20133;-82
2022/09/04 00:59:21;;;;;;;0.10;0.10;;;18.60;99.90;;;;;;4829627;29;20360;-77
2022/09/04 01:01:54;;;;;;;0.10;0.10;;;18.30;99.90;;;;;;4828347;29;20042;-77
2022/09/04 01:04:33;;;;;;;0.70;0.70;;;18.00;99.90;;;;;;4830141;29;20030;-80
2022/09/04 01:06:59;;;;;;;0.10;0.10;;;17.70;99.90;;;;;;4833281;29;20470;-77
2022/09/04 01:09:49;;;;;;;0.10;0.10;;;17.40;99.90;;;;;;4848407;29;20253;-77
2022/09/04 01:12:29;;;;;;;0.45;0.45;;;17.40;99.90;;;;;;4847930;29;20266;-78
2022/09/04 01:15:14;;;;;;;0.10;0.10;;;18.30;99.90;;;;;;4847597;29;20049;-76
2022/09/04 01:17:51;;;;;;;0.10;0.10;;;17.30;99.90;;;;;;4832381;29;20025;-78
2022/09/04 01:20:54;;;;;;;0.10;0.10;;;17.10;99.90;;;;;;4848974;29;20053;-78
2022/09/04 01:23:51;;;;;;;0.10;0.10;;;17.10;99.90;;;;;;4832890;29;20044;-82
2022/09/04 01:26:44;;;;;;;0.63;0.63;;;16.90;99.90;;;;;;4847996;29;20669;-77
2022/09/04 01:29:28;;;;;;;0.10;0.10;;;16.90;99.90;;;;;;4847998;29;20033;-76
2022/09/04 01:32:08;;;;;;;;;;;16.90;99.90;;;;;;4849168;29;20083;-76
2022/09/04 01:35:09;;;;;;;0.10;0.10;;;16.90;99.90;;;;;;4887100;29;19915;-77
2022/09/04 01:38:05;;;;;;;0.10;0.10;;;17.20;99.90;;;;;;4907249;29;20032;-76
2022/09/04 01:41:15;;;;;;;1.48;1.48;;;17.10;99.90;;;;;;4907889;29;20024;-77
2022/09/04 01:43:41;;;;;;;0.30;0.30;;;17.00;99.90;;;;;;4830002;29;20091;-78
2022/09/04 01:46:23;;;;;;;0.30;0.30;;;17.10;99.90;;;;;;4830421;29;20034;-80
2022/09/04 01:48:51;;;;;;;0.10;0.10;;;17.20;99.90;;;;;;4828997;29;20330;-77
2022/09/04 01:51:17;;;;;;;0.00;0.00;;;17.70;99.90;;;;;;4828456;29;20121;-92
2022/09/04 01:53:52;;;;;;;0.10;0.10;;;18.30;99.90;;;;;;4829447;29;20110;-78
2022/09/04 01:56:26;;;;;;;0.63;0.63;;;18.50;99.90;;;;;;4827552;29;20298;-78
2022/09/04 01:58:54;;;;;;;;;;;18.80;99.90;;;;;;4827148;29;20262;-76
2022/09/04 02:01:41;;;;;;;0.10;0.10;;;19.00;99.90;;;;;;4827667;29;19995;-86
2022/09/04 02:04:33;;;;;;;0.47;0.47;;;19.20;99.90;;;;;;4828055;29;20034;-81
2022/09/04 02:07:20;;;;;;;0.03;0.03;;;19.40;99.90;;;;;;4827317;29;20343;-76
2022/09/04 02:10:09;;;;;;;0.10;0.10;;;19.50;99.90;;;;;;4826309;29;20125;-76
2022/09/04 02:12:49;;;;;;;0.10;0.10;;;19.40;99.90;;;;;;4827953;29;20112;-76
2022/09/04 02:15:15;;;;;;;0.10;0.10;;;;;;;;;;4828587;29;20050;-78
2022/09/04 02:17:56;;;;;;;2.90;2.75;;;19.20;99.90;;;;;;4862604;29;20222;-76
2022/09/04 02:20:29;;;;;;;0.10;0.10;;;19.20;99.90;;;;;;4905855;29;20245;-80
2022/09/04 02:23:10;;;;;;;0.20;0.20;;;19.70;99.90;;;;;;4888100;29;20031;-80
2022/09/04 02:25:57;;;;;;;0.10;0.10;;;18.90;99.90;;;;;;4904768;29;20662;-83
2022/09/04 02:28:41;;;;;;;0.00;0.00;;;18.90;99.90;;;;;;4903382;29;20919;-83
2022/09/04 02:31:22;;;;;;;0.10;0.10;;;18.80;99.90;;;;;;4903707;29;20291;-79
2022/09/04 02:34:04;;;;;;;0.10;0.10;;;18.50;99.90;;;;;;4903027;29;20495;-81
2022/09/04 02:36:40;;;;;;;0.20;0.20;;;18.20;99.90;;;;;;4902676;29;20532;-77
2022/09/04 02:39:39;;;;;;;0.10;0.10;;;18.60;99.90;;;;;;4903485;29;20063;-77
2022/09/04 02:42:49;;;;;;;0.10;0.10;;;18.60;99.90;;;;;;4903831;29;20566;-82
2022/09/04 02:45:32;;;;;;;0.20;0.20;;;19.00;99.90;;;;;;4826176;29;20122;-84
2022/09/04 02:48:18;;;;;;;0.00;0.00;;;19.10;99.90;;;;;;4825349;29;20086;-77
2022/09/04 02:51:12;;;;;;;0.25;0.25;;;19.20;99.90;;;;;;4824707;29;20070;-80
2022/09/04 02:53:53;;;;;;;0.10;0.10;;;16.50;99.90;;;;;;4810267;29;20042;-78
2022/09/04 02:56:40;;;;;;;0.10;0.10;;;19.40;99.90;;;;;;4826457;29;20554;-77
2022/09/04 02:59:10;;;;;;;0.30;0.30;;;19.60;99.90;;;;;;4826365;29;20026;-83
2022/09/04 03:01:56;;;;;;;0.00;0.00;;;20.70;99.90;;;;;;4825275;29;20034;-76
2022/09/04 03:04:22;;;;;;;0.10;0.10;;;;;;;;;;4825957;29;20034;-76
2022/09/04 03:06:59;;;;;;;0.00;0.00;;;19.70;99.90;;;;;;4825343;29;20045;-80
2022/09/04 03:09:49;;;;;;;0.10;0.10;;;19.80;99.90;;;;;;4828911;29;20046;-75
2022/09/04 03:12:37;;;;;;;0.00;0.00;;;19.90;99.90;;;;;;4830898;29;20045;-85
2022/09/04 03:15:27;;;;;;;1.88;1.75;;;19.70;99.90;;;;;;4829960;29;20068;-75
2022/09/04 03:18:15;;;;;;;0.32;0.32;;;19.60;99.90;;;;;;4839926;29;20057;-84
2022/09/04 03:20:59;;;;;;;1.00;1.00;;;19.80;99.90;;;;;;4838340;29;20029;-80
2022/09/04 03:24:15;;;;;;;0.10;0.10;;;19.70;99.90;;;;;;4930371;29;20036;-79
2022/09/04 03:26:54;;;;;;;1.23;1.23;;;19.70;99.90;;;;;;4833115;29;20454;-88
2022/09/04 03:29:38;;;;;;;0.10;0.10;;;19.70;99.90;;;;;;4847780;29;20036;-84
2022/09/04 03:32:26;;;;;;;0.85;0.85;;;19.60;99.90;;;;;;4847216;29;20097;-89
2022/09/04 03:35:13;;;;;;;0.10;0.10;;;19.60;99.90;;;;;;4846767;29;20128;-77
2022/09/04 03:38:03;;;;;;;0.38;0.38;;;19.60;99.90;;;;;;4846784;29;20238;-78
2022/09/04 03:40:37;;;;;;;0.10;0.10;;;19.70;99.90;;;;;;4850796;29;20178;-81
2022/09/04 03:43:05;;;;;;;0.10;0.10;;;19.40;99.90;;;;;;4852646;29;20060;-76
2022/09/04 03:45:37;;;;;;;0.20;0.20;;;19.40;99.90;;;;;;4853148;29;20317;-84
2022/09/04 03:48:27;;;;;;;0.10;0.10;;;19.30;99.90;;;;;;4852788;29;20316;-83
2022/09/04 03:51:06;;;;;;;0.10;0.10;;;18.70;99.90;;;;;;4852986;29;20037;-77
2022/09/04 03:54:10;;;;;;;0.10;0.10;;;18.70;99.90;;;;;;4849591;29;20089;-80
2022/09/04 03:56:42;;;;;;;0.13;0.13;;;19.10;99.90;;;;;;4847759;29;20045;-86
2022/09/04 03:59:24;;;;;;;0.10;0.10;;;18.90;99.90;;;;;;4847826;29;20066;-81
2022/09/04 04:02:06;;;;;;;0.10;0.10;;;18.90;99.90;;;;;;4831704;29;20271;-77
2022/09/04 04:04:54;;;;;;;0.90;0.90;;;18.60;99.90;;;;;;4888474;29;20029;-78
2022/09/04 04:07:20;;;;;;;0.10;0.10;;;18.10;99.90;;;;;;4906266;29;20103;-79
2022/09/04 04:09:48;;;;;;;0.05;0.05;;;17.90;99.90;;;;;;4906338;29;20087;-86
2022/09/04 04:12:29;;;;;;;0.10;0.10;;;17.80;99.90;;;;;;4905813;29;20196;-82
2022/09/04 04:15:06;;;;;;;0.10;0.10;;;17.90;99.90;;;;;;4905232;29;20055;-83
2022/09/04 04:17:50;;;;;;;0.47;0.47;;;18.30;99.90;;;;;;4904924;29;20346;-83
2022/09/04 04:20:28;;;;;;;0.00;0.00;;;18.70;99.90;;;;;;4905342;29;20036;-82
2022/09/04 04:23:16;;;;;;;0.65;0.65;;;18.80;99.90;;;;;;4904302;29;20028;-81
2022/09/04 04:25:46;;;;;;;0.10;0.10;;;;;;;;;;4887727;29;20461;-77
2022/09/04 04:28:35;;;;;;;0.10;0.10;;;19.20;99.90;;;;;;4904533;29;20016;-77
2022/09/04 04:31:38;;;;;;;2.42;2.28;;;19.30;99.90;;;;;;4845501;29;20046;-81
2022/09/04 04:34:15;;;;;;;0.10;0.10;;;19.60;99.90;;;;;;4845280;29;20045;-76
2022/09/04 04:37:00;;;;;;;0.10;0.10;;;19.50;99.90;;;;;;4845974;29;20041;-77
2022/09/04 04:39:34;;;;;;;0.10;0.10;;;19.70;99.90;;;;;;4830084;29;20492;-83
2022/09/04 04:42:27;;;;;;;0.60;0.60;;;19.60;99.90;;;;;;4845261;29;20034;-78
2022/09/04 04:48:14;;;;;;;0.10;0.10;;;19.50;99.90;;;;;;4850781;29;20238;-80
2022/09/04 04:51:02;;;;;;;0.25;0.25;;;19.40;99.90;;;;;;4849934;29;20029;-79
2022/09/04 04:53:56;;;;;;;1.20;1.20;;;19.50;99.90;;;;;;4852082;29;20028;-77
2022/09/04 04:56:28;;;;;;;;;;;19.60;99.90;;;;;;4852811;29;20067;-81
2022/09/04 04:59:31;;;;;;;1.42;1.40;;;19.70;99.90;;;;;;4853788;29;20160;-79
2022/09/04 05:02:07;;;;;;;0.28;0.28;;;19.70;99.90;;;;;;4855135;29;20771;-75
2022/09/04 05:04:56;;;;;;;0.10;0.10;;;19.70;99.90;;;;;;4837663;29;20057;-77
2022/09/04 05:08:01;;;;;;;0.10;0.10;;;19.80;99.90;;;;;;4863720;29;20130;-77
2022/09/04 05:10:44;;;;;;;0.10;0.10;;;19.80;99.90;;;;;;4910972;29;20028;-79
2022/09/04 05:13:13;;;;;;;1.02;1.02;;;19.80;99.90;;;;;;4909298;29;20024;-77
2022/09/04 05:15:42;;;;;;;1.65;1.55;;;19.90;99.90;;;;;;4906985;29;20068;-78
2022/09/04 05:18:34;;;;;;;0.10;0.10;;;19.90;99.90;;;;;;4907472;29;20641;-75
2022/09/04 05:21:33;;;;;;;0.10;0.10;;;20.10;99.90;;;;;;4905937;29;20223;-81
2022/09/04 05:24:02;;;;;;;0.10;0.10;;;19.90;99.90;;;;;;4905732;29;20028;-82
2022/09/04 05:26:50;;;;;;;0.00;0.00;;;19.90;99.90;;;;;;4906142;29;20056;-85
2022/09/04 05:29:19;;;;;;;0.30;0.30;;;19.90;99.90;;;;;;4905426;29;20091;-77
2022/09/04 05:32:09;;;;;;;1.38;1.38;;;20.00;99.90;;;;;;4905319;29;20028;-78
2022/09/04 05:34:55;;;;;;;1.08;1.08;;;20.00;99.90;;;;;;4904133;29;20242;-78
2022/09/04 05:37:39;;;;;;;0.10;0.10;;;20.10;99.90;;;;;;4903252;29;20246;-84
2022/09/04 05:40:11;;;;;;;0.30;0.30;;;20.00;99.90;;;;;;4904049;29;20086;-78
2022/09/04 05:42:49;;;;;;;0.15;0.15;;;20.00;99.90;;;;;;4903982;29;20341;-76
2022/09/04 05:45:24;;;;;;;0.08;0.08;;;20.10;99.90;;;;;;4903606;29;20059;-78
2022/09/04 05:47:57;;;;;;;0.10;0.10;;;20.00;99.90;;;;;;4886443;29;20028;-85
2022/09/04 05:50:55;;;;;;;0.10;0.10;;;20.10;99.90;;;;;;4903315;29;20036;-77
2022/09/04 05:53:55;;;;;;;0.10;0.10;;;20.20;99.90;;;;;;4887407;29;20035;-78
2022/09/04 05:56:39;;;;;;;0.10;0.10;;;20.30;99.90;;;;;;4903348;29;20650;-79
2022/09/04 05:59:37;;;;;;;0.10;0.10;;;20.40;99.90;;;;;;4904453;29;20239;-81
2022/09/04 06:02:27;;;;;;;0.10;0.10;;;20.20;99.90;;;;;;4873787;29;20091;-77
2022/09/04 06:05:02;;;;;;;0.10;0.10;;;20.40;99.90;;;;;;4902930;29;20666;-77
2022/09/04 06:07:52;;;;;;;0.10;0.10;;;20.30;99.90;;;;;;4903329;29;20038;-90
2022/09/04 06:10:46;;;;;;;0.10;0.10;;;20.20;99.90;;;;;;4902878;29;20034;-79
2022/09/04 06:13:21;;;;;;;0.10;0.10;;;20.00;99.90;;;;;;4902641;29;20020;-84
2022/09/04 06:16:05;;;;;;;0.10;0.10;;;19.90;99.90;;;;;;4902579;29;20056;-76
2022/09/04 06:18:51;;;;;;;0.10;0.10;;;19.70;99.90;;;;;;4903247;29;20024;-78
2022/09/04 06:21:19;;;;;;;0.15;0.15;;;19.70;99.90;;;;;;4902524;29;20475;-83
2022/09/04 06:24:11;;;;;;;0.00;0.00;;;19.10;99.90;;;;;;4903164;29;20563;-79
2022/09/04 06:26:50;;;;;;;0.15;0.15;;;19.80;99.90;;;;;;4900814;29;20327;-78
2022/09/04 06:29:35;;;;;;;0.10;0.10;;;19.90;99.90;;;;;;4902562;29;20028;-76
2022/09/04 06:32:22;;;;;;;0.20;0.20;;;20.80;99.90;;;;;;4902462;29;20036;-90
2022/09/04 06:34:50;;;;;;;0.10;0.10;;;20.10;99.90;;;;;;4885207;29;20286;-76
2022/09/04 06:37:42;;;;;;;0.10;0.10;;;20.30;99.90;;;;;;4885568;29;20334;-86
2022/09/04 06:40:38;;;;;;;0.20;0.20;;;20.50;99.90;;;;;;4902004;29;20210;-84
2022/09/04 06:43:28;;;;;;;0.08;0.08;;;20.60;99.90;;;;;;4885524;29;20024;-79
2022/09/04 06:46:12;;;;;;;0.65;0.65;;;20.70;99.90;;;;;;4901776;29;20028;-83
2022/09/04 06:48:49;;;;;;;;;;;20.90;99.90;;;;;;4902845;29;20504;-76
2022/09/04 06:51:41;;;;;;;0.10;0.10;;;20.70;99.90;;;;;;4902504;29;19907;-82
2022/09/04 06:54:18;;;;;;;0.22;0.22;;;20.80;99.90;;;;;;4902899;29;20087;-81
2022/09/04 06:57:05;;;;;;;0.32;0.32;;;20.70;99.90;;;;;;4885706;29;20083;-80
2022/09/04 06:59:50;;;;;;;0.10;0.10;;;20.60;99.90;;;;;;4902611;29;20540;-76
2022/09/04 07:02:56;;;;;;;0.10;0.10;;;20.40;99.90;;;;;;4904948;29;20107;-77
2022/09/04 07:05:27;;;;;;;1.05;1.05;;;20.30;99.90;;;;;;4812966;29;20512;-76
2022/09/04 07:07:59;;;;;;;0.10;0.10;;;20.40;99.90;;;;;;4833161;29;20042;-86
2022/09/04 07:10:33;;;;;;;0.10;0.10;;;20.30;99.90;;;;;;4830328;29;20128;-76
2022/09/04 07:13:29;;;;;;;0.10;0.10;;;20.80;99.90;;;;;;4830938;29;20466;-74
2022/09/04 07:16:30;;;;;;;0.10;0.10;;;20.40;99.90;;;;;;4830823;29;20061;-77
2022/09/04 07:19:06;;;;;;;0.10;0.10;;;20.40;99.90;;;;;;4792029;29;20104;-77
2022/09/04 07:22:03;;;;;;;0.10;0.10;;;20.30;99.90;;;;;;4788386;29;20629;-78
2022/09/04 07:24:48;;;;;;;0.05;0.05;;;22.90;99.90;;;;;;4789043;29;20050;-75
2022/09/04 07:27:48;;;;;;;0.80;0.80;;;20.30;99.90;;;;;;4789535;29;20597;-84
2022/09/04 07:30:16;;;;;;;0.10;0.10;;;20.50;99.90;;;;;;4788867;29;20049;-80
2022/09/04 07:33:03;;;;;;;0.10;0.10;;;20.70;99.90;;;;;;4790769;29;20507;-83
2022/09/04 07:35:58;;;;;;;0.10;0.10;;;20.90;99.90;;;;;;4789049;29;20124;-77
2022/09/04 07:38:44;;;;;;;1.05;1.05;;;21.10;99.90;;;;;;4788028;29;20039;-78
2022/09/04 07:41:20;;;;;;;0.68;0.68;;;21.10;99.90;;;;;;4802967;29;20451;-79
2022/09/04 07:44:08;;;;;;;0.30;0.30;;;21.40;99.90;;;;;;4862137;29;20085;-81
2022/09/04 07:46:43;;;;;;;0.10;0.10;;;21.30;99.90;;;;;;4861659;29;20312;-78
2022/09/04 07:49:53;;;;;;;0.20;0.20;;;21.50;99.90;;;;;;4846015;29;20482;-78
2022/09/04 07:52:22;;;;;;;0.40;0.40;;;22.20;99.90;;;;;;4862055;29;20029;-75
2022/09/04 07:55:03;;;;;;;1.55;1.45;;;22.00;99.90;;;;;;4865081;29;20343;-75
2022/09/04 07:57:42;;;;;;;0.10;0.10;;;22.30;99.90;;;;;;4885918;29;20051;-81
2022/09/04 08:00:16;;;;;;;0.15;0.15;;;25.70;99.90;;;;;;4906843;29;20140;-79
2022/09/04 08:02:57;;;;;;;1.50;1.40;;;22.80;99.90;;;;;;4887808;29;20499;-81
2022/09/04 08:05:35;;;;;;;1.23;0.93;;;23.00;99.90;;;;;;4888847;29;20060;-78
2022/09/04 08:08:20;;;;;;;0.05;0.05;;;23.00;99.90;;;;;;4910516;29;20058;-83
2022/09/04 08:11:24;;;;;;;0.00;0.00;;;23.70;99.90;;;;;;4913834;29;20036;-86
2022/09/04 08:14:26;;;;;;;2.42;1.65;;;23.30;99.90;;;;;;4837434;29;20685;-78
2022/09/04 08:17:24;;;;;;;0.10;0.10;;;23.50;99.90;;;;;;4838826;29;20058;-76
2022/09/04 08:20:18;;;;;;;0.17;0.17;;;23.50;99.90;;;;;;4836022;29;20497;-76
2022/09/04 08:22:56;;;;;;;0.10;0.10;;;23.70;99.90;;;;;;4820649;29;20030;-76
2022/09/04 08:25:39;;;;;;;0.10;0.10;;;23.60;99.90;;;;;;4835953;29;20342;-77
2022/09/04 08:28:05;;;;;;;;;;;23.70;99.90;;;;;;4836579;29;20045;-75
2022/09/04 08:30:41;;;;;;;0.08;0.08;;;23.90;99.90;;;;;;4837072;29;20335;-77
2022/09/04 08:34:02;;;;;;;0.00;0.00;;;23.90;99.90;;;;;;4833653;29;20075;-78
2022/09/04 08:37:11;;;;;;;0.00;0.00;;;23.70;99.90;;;;;;4797805;29;20059;-79
2022/09/04 08:40:10;;;;;;;0.10;0.10;;;23.50;99.90;;;;;;4742540;30;20045;-77
2022/09/04 08:42:36;;;;;;;0.15;0.15;;;;;;;;;;4744110;29;20052;-78
2022/09/04 08:45:38;;;;;;;0.00;0.00;;;23.30;99.90;;;;;;4745843;30;20104;-76
2022/09/04 08:48:31;;;;;;;0.52;0.40;;;23.40;99.90;;;;;;4741459;30;20105;-79
2022/09/04 08:51:34;;;;;;;0.10;0.10;;;23.40;99.90;;;;;;4796381;29;20042;-87
2022/09/04 08:54:43;;;;;;;0.15;0.15;;;23.30;99.90;;;;;;4812239;29;20114;-77
2022/09/04 08:57:28;;;;;;;0.00;0.00;;;23.30;99.90;;;;;;4810399;29;20034;-75
2022/09/04 09:00:12;;;;;;;0.38;0.38;;;23.40;99.90;;;;;;4808865;29;20104;-76
2022/09/04 09:03:16;;;;;;;2.05;0.60;;;23.50;99.90;;;;;;4808902;29;20027;-75
2022/09/04 09:06:05;;;;;;;1.00;0.95;;;23.50;99.90;;;;;;4811251;29;20069;-77
2022/09/04 09:08:52;;;;;;;0.10;0.10;;;23.30;99.90;;;;;;4849768;29;20037;-76
2022/09/04 09:11:55;;;;;;;0.10;0.10;;;23.50;99.90;;;;;;4848424;29;20182;-76
2022/09/04 09:14:39;;;;;;;0.00;0.00;;;23.70;99.90;;;;;;4848079;29;20087;-77
2022/09/04 09:17:21;;;;;;;3.15;2.95;;;23.80;99.90;;;;;;4880948;29;20291;-77
2022/09/04 09:20:09;;;;;;;0.00;0.00;;;24.00;99.90;;;;;;4911356;29;20574;-78
2022/09/04 09:22:56;;;;;;;0.00;0.00;;;24.20;99.90;;;;;;4906295;29;20644;-81
2022/09/04 09:25:54;;;;;;;0.65;0.55;;;24.20;99.90;;;;;;4887584;29;20091;-80
2022/09/04 09:28:48;;;;;;;0.20;0.20;;;24.50;99.90;;;;;;4875600;29;20032;-78
2022/09/04 09:31:16;;;;;;;0.55;0.32;;;24.60;98.50;;;;;;4908558;29;20032;-75
2022/09/04 09:34:10;;;;;;;0.10;0.10;;;24.80;98.10;;;;;;4911254;29;20036;-77
2022/09/04 09:36:42;;;;;;;0.10;0.10;;;24.50;99.40;;;;;;4850248;29;20843;-79
2022/09/04 09:39:14;;;;;;;0.10;0.10;;;24.40;99.80;;;;;;4847253;29;20033;-76
2022/09/04 09:41:50;;;;;;;0.30;0.30;;;24.50;99.90;;;;;;4847614;29;20280;-75
2022/09/04 09:44:41;;;;;;;0.00;0.00;;;24.80;99.80;;;;;;4848313;29;20028;-75
2022/09/04 09:47:54;;;;;;;0.00;0.00;;;25.00;98.80;;;;;;4848757;29;20148;-77
2022/09/04 09:50:40;;;;;;;0.00;0.00;;;25.90;97.20;;;;;;4792138;29;20031;-85
2022/09/04 09:53:28;;;;;;;0.10;0.10;;;25.60;95.70;;;;;;4777967;29;20068;-77
2022/09/04 09:55:56;;;;;;;0.00;0.00;;;25.90;95.50;;;;;;4794564;29;20043;-82
2022/09/04 09:58:46;;;;;;;0.10;0.10;;;26.50;96.10;;;;;;4792735;29;20027;-83
2022/09/04 10:01:20;;;;;;;0.00;0.00;;;25.70;95.40;;;;;;4790369;29;20043;-75
2022/09/04 10:03:58;;;;;;;0.00;0.00;;;25.90;95.70;;;;;;4791826;29;20140;-76
2022/09/04 10:06:52;;;;;;;0.40;0.40;;;25.50;96.30;;;;;;4790450;29;20442;-76
2022/09/04 10:09:46;;;;;;;0.00;0.00;;;25.40;97.00;;;;;;4783959;29;20058;-78
2022/09/04 10:12:29;;;;;;;0.00;0.00;;;26.00;97.40;;;;;;4771796;29;20027;-79
2022/09/04 10:15:07;;;;;;;1.98;1.88;;;25.30;96.70;;;;;;4807963;29;20141;-75
2022/09/04 10:17:51;;;;;;;0.75;0.75;;;25.40;97.20;;;;;;4807309;29;20119;-76
2022/09/04 10:20:41;;;;;;;0.20;0.20;;;25.00;98.50;;;;;;4813982;29;20731;-90
2022/09/04 10:23:35;;;;;;;0.10;0.10;;;24.70;99.70;;;;;;4844548;29;20104;-82
2022/09/04 10:26:10;;;;;;;0.65;0.65;;;24.70;99.90;;;;;;4843924;29;20028;-78
2022/09/04 10:29:08;;;;;;;0.40;0.40;;;24.20;99.90;;;;;;4830165;29;20037;-77
2022/09/04 10:31:55;;;;;;;0.30;0.30;;;23.80;99.90;;;;;;4777881;30;20043;-79
2022/09/04 10:34:33;;;;;;;0.75;0.75;;;23.40;99.90;;;;;;4779691;29;20153;-78
2022/09/04 10:37:21;;;;;;;0.20;0.20;;;23.00;99.90;;;;;;4780747;29;20404;-76
2022/09/04 10:42:50;;;;;;;0.45;0.45;;;22.50;99.90;;;;;;4779496;29;20671;-75
2022/09/04 10:45:24;;;;;;;0.88;0.88;;;22.50;99.90;;;;;;4776975;29;20092;-75
2022/09/04 10:48:16;;;;;;;0.15;0.15;;;22.30;99.90;;;;;;4830327;29;20094;-75
2022/09/04 10:51:10;;;;;;;1.15;1.15;;;20.40;99.90;;;;;;4828730;29;20105;-78
2022/09/04 10:53:55;;;;;;;0.00;0.00;;;22.50;99.90;;;;;;4826580;29;20034;-80
2022/09/04 10:56:28;;;;;;;0.00;0.00;;;22.50;99.90;;;;;;4810634;29;20099;-76
2022/09/04 10:59:16;;;;;;;0.00;0.00;;;22.40;99.90;;;;;;4825582;29;20026;-81
2022/09/04 11:01:56;;;;;;;1.40;1.30;;;22.30;99.90;;;;;;4825941;29;20042;-91
2022/09/04 11:05:07;;;;;;;0.10;0.10;;;22.40;99.90;;;;;;4825918;29;20040;-75
2022/09/04 11:08:00;;;;;;;0.10;0.10;;;22.90;99.90;;;;;;4828285;29;20034;-77
2022/09/04 11:10:38;;;;;;;3.75;3.45;;;22.90;99.90;;;;;;4905564;29;20024;-77
2022/09/04 11:13:24;;;;;;;0.10;0.10;;;23.10;99.90;;;;;;4905537;29;20361;-78
2022/09/04 11:16:10;;;;;;;0.00;0.00;;;23.30;99.90;;;;;;4906739;29;20040;-76
2022/09/04 11:18:55;;;;;;;0.80;0.80;;;23.30;99.90;;;;;;4904994;29;20028;-76
2022/09/04 11:21:58;;;;;;;1.17;1.17;;;23.50;99.90;;;;;;4903900;29;20028;-77
2022/09/04 11:24:41;;;;;;;0.00;0.00;;;23.70;99.90;;;;;;4903490;29;20371;-77
2022/09/04 11:27:29;;;;;;;0.00;0.00;;;23.90;99.90;;;;;;4903633;29;20111;-83
2022/09/04 11:30:31;;;;;;;0.10;0.10;;;24.70;99.90;;;;;;4903086;29;20051;-82
2022/09/04 11:33:36;;;;;;;0.05;0.05;;;24.70;99.20;;;;;;4827556;29;20042;-76
2022/09/04 11:36:26;;;;;;;0.00;0.00;;;25.60;99.30;;;;;;4828693;29;20034;-78
2022/09/04 11:38:55;;;;;;;0.00;0.00;;;25.20;98.30;;;;;;4813157;29;20026;-80
2022/09/04 11:41:42;;;;;;;0.00;0.00;;;24.40;98.60;;;;;;4813790;29;20026;-76
2022/09/04 11:44:46;;;;;;;0.10;0.10;;;25.40;98.70;;;;;;4828849;29;20091;-77
2022/09/04 11:47:30;;;;;;;0.00;0.00;;;25.80;99.90;;;;;;4813415;29;20090;-76
2022/09/04 11:50:25;;;;;;;0.00;0.00;;;26.30;99.90;;;;;;4828714;29;20058;-77
2022/09/04 11:52:51;;;;;;;0.00;0.00;;;26.90;98.20;;;;;;4828776;29;20052;-82
2022/09/04 11:55:30;;;;;;;0.00;0.00;;;27.40;97.30;;;;;;4829774;29;20672;-79
2022/09/04 11:58:26;;;;;;;0.03;0.03;;;27.70;96.10;;;;;;4828616;29;20659;-73
2022/09/04 12:01:39;;;;;;;0.00;0.00;;;28.00;95.20;;;;;;4833739;29;20026;-89
2022/09/04 12:04:37;;;;;;;0.00;0.00;;;28.00;94.70;;;;;;4757471;30;20036;-84
2022/09/04 12:07:21;;;;;;;0.00;0.00;;;28.00;94.60;;;;;;4746633;30;20115;-77
2022/09/04 12:10:15;;;;;;;0.00;0.00;;;28.00;93.80;;;;;;4790650;29;20121;-80
2022/09/04 12:13:26;;;;;;;0.05;0.05;;;27.50;94.80;;;;;;4827339;29;20033;-79
2022/09/04 12:16:13;;;;;;;4.82;2.72;;;27.40;94.90;;;;;;4773535;30;20043;-77
2022/09/04 12:19:07;;;;;;;0.57;0.57;;;24.30;94.00;;;;;;4773716;29;20031;-88
2022/09/04 12:21:57;;;;;;;0.20;0.20;;;23.90;95.00;;;;;;4773079;29;20115;-77
2022/09/04 12:24:31;;;;;;;0.30;0.30;;;26.10;96.70;;;;;;4776085;29;20038;-76
2022/09/04 12:27:24;;;;;;;0.10;0.10;;;25.70;97.80;;;;;;4777005;29;20759;-79
2022/09/04 12:30:06;;;;;;;0.10;0.10;;;21.60;97.50;;;;;;4774461;29;20035;-81
2022/09/04 12:32:34;;;;;;;0.25;0.25;;;24.90;98.70;;;;;;4772816;29;20039;-75
2022/09/04 12:35:16;;;;;;;0.00;0.00;;;24.70;99.50;;;;;;4772561;29;20071;-76
2022/09/04 12:37:59;;;;;;;0.00;0.00;;;24.50;99.90;;;;;;4772717;29;20092;-77
2022/09/04 12:40:31;;;;;;;0.10;0.10;;;24.20;99.90;;;;;;4796431;29;20098;-76
2022/09/04 12:43:15;;;;;;;0.00;0.00;;;22.30;99.90;;;;;;4827781;29;20113;-80
2022/09/04 12:45:40;;;;;;;0.45;0.45;;;24.20;99.90;;;;;;4836051;29;20095;-78
2022/09/04 12:48:21;;;;;;;0.10;0.10;;;23.50;99.90;;;;;;4904339;29;20762;-76
2022/09/04 12:51:03;;;;;;;0.00;0.00;;;23.30;99.90;;;;;;4887355;29;20060;-83
2022/09/04 12:53:43;;;;;;;0.10;0.10;;;23.10;99.90;;;;;;4887755;29;20666;-86
2022/09/04 12:56:17;;;;;;;0.03;0.03;;;23.00;99.90;;;;;;4904638;29;20679;-76
2022/09/04 12:58:58;;;;;;;0.10;0.10;;;22.90;99.90;;;;;;4904388;29;20028;-86
2022/09/04 13:01:38;;;;;;;0.03;0.03;;;22.70;99.90;;;;;;4904094;29;20044;-75
2022/09/04 13:04:13;;;;;;;0.00;0.00;;;23.70;99.90;;;;;;4903982;29;20080;-78
2022/09/04 13:07:19;;;;;;;0.00;0.00;;;20.40;99.90;;;;;;4904375;29;20104;-80
2022/09/04 13:09:45;;;;;;;0.20;0.20;;;22.60;99.90;;;;;;4904549;29;20514;-80
2022/09/04 13:12:28;;;;;;;0.22;0.22;;;23.00;99.90;;;;;;4887970;29;20083;-86
2022/09/04 13:15:10;;;;;;;0.10;0.10;;;22.50;99.90;;;;;;4886925;29;20043;-75
2022/09/04 13:17:57;;;;;;;0.10;0.10;;;24.00;99.90;;;;;;4904733;29;20111;-76
2022/09/04 13:20:56;;;;;;;0.00;0.00;;;22.60;99.90;;;;;;4903994;29;20020;-77
2022/09/04 13:23:28;;;;;;;0.22;0.22;;;22.70;99.90;;;;;;4903930;29;20035;-85
2022/09/04 13:26:16;;;;;;;0.47;0.47;;;23.20;99.90;;;;;;4887648;29;20028;-84
2022/09/04 13:28:44;;;;;;;0.00;0.00;;;22.80;99.90;;;;;;4903983;29;20031;-80
2022/09/04 13:31:38;;;;;;;0.10;0.10;;;22.70;99.90;;;;;;4904219;29;20095;-87
2022/09/04 13:34:15;;;;;;;0.00;0.00;;;22.80;99.90;;;;;;4903585;29;20519;-80
2022/09/04 13:36:53;;;;;;;0.10;0.10;;;22.80;99.90;;;;;;4903298;29;20036;-79
2022/09/04 13:39:34;;;;;;;0.13;0.13;;;22.80;99.90;;;;;;4903834;29;20658;-80
2022/09/04 13:42:09;;;;;;;0.55;0.55;;;22.90;99.90;;;;;;4903615;29;20079;-81
2022/09/04 13:44:42;;;;;;;0.00;0.00;;;22.70;99.90;;;;;;4903710;29;20020;-85
2022/09/04 13:47:21;;;;;;;0.00;0.00;;;22.60;99.90;;;;;;4903436;29;20024;-76
2022/09/04 13:50:07;;;;;;;0.00;0.00;;;22.40;99.90;;;;;;4903784;29;20039;-82
2022/09/04 13:52:44;;;;;;;0.10;0.10;;;22.20;99.90;;;;;;4903596;29;20023;-88
2022/09/04 13:55:29;;;;;;;2.05;1.95;;;22.20;99.90;;;;;;4903102;29;20040;-80
2022/09/04 13:58:11;;;;;;;0.00;0.00;;;22.20;99.90;;;;;;4906852;29;20809;-76
2022/09/04 14:00:56;;;;;;;0.00;0.00;;;22.10;99.90;;;;;;4891882;29;20123;-77
2022/09/04 14:03:30;;;;;;;0.10;0.10;;;20.60;99.90;;;;;;4892019;29;20107;-77
2022/09/04 14:05:58;;;;;;;0.43;0.35;;;22.10;99.90;;;;;;4909509;29;20024;-77
2022/09/04 14:08:29;;;;;;;0.25;0.25;;;22.30;99.90;;;;;;4908334;29;20024;-87
2022/09/04 14:11:32;;;;;;;0.25;0.25;;;22.00;99.90;;;;;;4907651;29;20028;-76
2022/09/04 14:14:10;;;;;;;0.32;0.32;;;22.30;99.90;;;;;;4846797;29;20205;-77
2022/09/04 14:16:42;;;;;;;1.23;1.20;;;22.30;99.90;;;;;;4828939;29;20065;-77
2022/09/04 14:19:31;;;;;;;0.00;0.00;;;22.30;99.90;;;;;;4829200;29;20725;-75
2022/09/04 14:22:06;;;;;;;0.13;0.13;;;22.30;99.90;;;;;;4826970;29;20114;-75
2022/09/04 14:24:40;;;;;;;1.38;1.10;;;22.40;99.90;;;;;;4825964;29;20057;-76
2022/09/04 14:27:18;;;;;;;0.00;0.00;;;22.40;99.90;;;;;;4825837;29;20057;-86